Killeen, Texas
Current Conditions -  °F | °C
As of 6:56 PM on Tuesday 21 Oct 2014 (Local Time) from KHLR Reporting Station
Clear Clear  
Wind Chill: 76°   Ceiling: Unl
Heat Index: 76°   Visibility: 10mi
Dew Point: 48°   Wind: 0mph
Humidity: 37%   Direction: NA
Pressure: 30.02"   Gusts: NA
Location:  31.12°N, 97.73°W
Report Text: KHLR 212356Z 00000KT 10SM CLR 24/09 A3002 RMK AO2 SLPNO 56022 T02440089 10283 20244 $
Loading
Personal Weather Stations






























Interactive Weather Map
Tropical Storm Tracking
New forecast layout! Learn more

10-Day Weather Forecast

Advertisements
Track Severe Weather on mobile